Lanesboro, Iowa
Current Conditions -  °F | °C
As of 2:55 PM on Saturday 20 Dec 2014 (Local Time) from KCIN Reporting Station
Overcast Overcast  
Wind Chill: 26°   Ceiling: 1000
Heat Index: 34°   Visibility: 10mi
Dew Point: 32°   Wind: 9mph
Humidity: 93%   Direction: 180°S
Pressure: 30.07"   Gusts: NA
Location:  42.18°N, 94.69°W
Report Text: KCIN 202055Z AUTO 18008KT 10SM OVC010 01/M00 A3007 RMK AO2
Loading
Personal Weather Stations






























Interactive Weather Map New forecast layout! Learn more

10-Day Weather Forecast

Advertisements
Track Severe Weather on mobile